Time;durP1;ratioP1;P1;durP2;ratioP2;P2;SDS_P1;SDS_P2;PMS_P1;PMS_P2;Temp;Humidity;BMP_temperature;BMP_pressure;BME280_temperature;BME280_humidity;BME280_pressure;Samples;Min_cycle;Max_cycle;Signal;HPM_P1;HPM_P2
2022/04/10 00:01:14;;;;;;;123.53;60.03;;;1.60;99.90;;;;;;10372946;28;20036;-81
2022/04/10 00:06:15;;;;;;;104.27;52.13;;;1.60;99.90;;;;;;10370849;28;20063;-83
2022/04/10 00:11:16;;;;;;;98.50;49.67;;;1.60;99.90;;;;;;10370490;28;20022;-79
2022/04/10 00:16:16;;;;;;;89.20;45.33;;;1.60;99.90;;;;;;10369920;28;20657;-81
2022/04/10 00:21:17;;;;;;;97.87;49.07;;;1.60;99.90;;;;;;10369448;28;20038;-79
2022/04/10 00:26:18;;;;;;;100.40;50.50;;;1.60;99.90;;;;;;10370301;28;20666;-79
2022/04/10 00:31:19;;;;;;;89.27;45.77;;;1.60;99.90;;;;;;10385795;28;20056;-82
2022/04/10 00:36:20;;;;;;;94.27;47.77;;;1.40;99.90;;;;;;10369302;28;20030;-84
2022/04/10 00:41:20;;;;;;;104.80;53.73;;;1.20;99.90;;;;;;10395027;28;20401;-83
2022/04/10 00:46:21;;;;;;;87.57;43.83;;;1.10;99.90;;;;;;10374515;28;20046;-79
2022/04/10 00:51:40;;;;;;;76.57;37.37;;;1.20;99.90;;;;;;10385789;28;20037;-80
2022/04/10 00:56:42;;;;;;;56.10;28.60;;;1.20;99.90;;;;;;10384269;28;20445;-82
2022/04/10 01:01:46;;;;;;;53.00;27.57;;;1.30;99.90;;;;;;10390170;28;20033;-81
2022/04/10 01:06:48;;;;;;;61.57;32.40;;;1.30;99.90;;;;;;10402752;28;20051;-79
2022/04/10 01:11:51;;;;;;;70.67;35.57;;;1.40;99.90;;;;;;10374080;28;20026;-81
2022/04/10 01:16:52;;;;;;;80.97;43.33;;;1.50;99.90;;;;;;10368174;28;20040;-82
2022/04/10 01:21:58;;;;;;;50.70;25.87;;;1.50;99.90;;;;;;10367256;28;20048;-79
2022/04/10 01:26:59;;;;;;;45.78;20.63;;;1.60;99.90;;;;;;10367450;28;20126;-83
2022/04/10 01:32:00;;;;;;;38.17;18.97;;;1.50;99.90;;;;;;10369303;28;20158;-80
2022/04/10 01:37:03;;;;;;;40.20;21.87;;;1.60;99.90;;;;;;10367358;28;20034;-81
2022/04/10 01:42:04;;;;;;;36.83;20.27;;;1.60;99.90;;;;;;10394444;28;20024;-81
2022/04/10 01:47:05;;;;;;;40.33;19.33;;;1.60;99.90;;;;;;10367212;28;20474;-82
2022/04/10 01:52:06;;;;;;;40.40;19.50;;;1.70;99.90;;;;;;10367087;28;20015;-85
2022/04/10 01:57:09;;;;;;;41.07;20.00;;;1.70;99.90;;;;;;10379158;28;20105;-82
2022/04/10 02:02:09;;;;;;;40.67;20.30;;;1.70;99.90;;;;;;10378466;28;20057;-81
2022/04/10 02:07:10;;;;;;;47.73;22.33;;;1.60;99.90;;;;;;10384986;28;20091;-82
2022/04/10 02:12:11;;;;;;;39.23;20.57;;;1.60;99.90;;;;;;10387207;28;20030;-80
2022/04/10 02:17:11;;;;;;;43.03;23.17;;;1.70;99.90;;;;;;10351359;28;20042;-81
2022/04/10 02:22:12;;;;;;;51.83;25.47;;;1.70;99.90;;;;;;10384132;28;20049;-81
2022/04/10 02:27:12;;;;;;;91.67;47.47;;;1.60;99.90;;;;;;10413274;28;20050;-85
2022/04/10 02:32:13;;;;;;;60.80;31.57;;;1.60;99.90;;;;;;10390142;28;20065;-82
2022/04/10 02:37:14;;;;;;;50.00;25.20;;;1.40;99.90;;;;;;10414733;28;20033;-81
2022/04/10 02:42:14;;;;;;;59.53;29.13;;;1.20;99.90;;;;;;10374350;28;20029;-82
2022/04/10 02:47:15;;;;;;;53.87;27.67;;;0.80;99.90;;;;;;10389369;28;20033;-83
2022/04/10 02:52:16;;;;;;;77.80;36.20;;;0.70;99.90;;;;;;10373995;28;20706;-83
2022/04/10 02:57:16;;;;;;;72.87;35.97;;;0.50;99.90;;;;;;10373579;28;20042;-82
2022/04/10 03:02:17;;;;;;;71.63;35.80;;;0.50;99.90;;;;;;10374195;28;20029;-81
2022/04/10 03:07:18;;;;;;;88.97;44.17;;;0.60;99.90;;;;;;10381547;28;20382;-83
2022/04/10 03:12:18;;;;;;;91.50;46.30;;;0.70;99.90;;;;;;10373918;28;20029;-81
2022/04/10 03:17:20;;;;;;;84.83;45.23;;;0.70;99.90;;;;;;10387153;28;20026;-85
2022/04/10 03:22:20;;;;;;;90.63;42.23;;;0.70;99.90;;;;;;10372191;28;20061;-87
2022/04/10 03:27:21;;;;;;;96.47;48.93;;;0.50;99.90;;;;;;10378712;28;20067;-82
2022/04/10 03:32:21;;;;;;;95.57;44.83;;;0.40;99.90;;;;;;10399445;28;20057;-83
2022/04/10 03:37:22;;;;;;;89.03;42.20;;;0.20;99.90;;;;;;10412125;28;20065;-84
2022/04/10 03:42:22;;;;;;;91.40;42.53;;;0.10;99.90;;;;;;10401271;28;20393;-82
2022/04/10 03:47:23;;;;;;;101.93;47.30;;;0.00;99.90;;;;;;10384991;28;20029;-86
2022/04/10 03:52:24;;;;;;;91.00;43.30;;;0.00;99.90;;;;;;10402796;28;20033;-86
2022/04/10 03:57:25;;;;;;;100.93;48.03;;;0.10;99.90;;;;;;10394439;28;20029;-82
2022/04/10 04:02:26;;;;;;;119.07;56.97;;;0.20;99.90;;;;;;10391317;28;20080;-82
2022/04/10 04:07:27;;;;;;;115.67;57.53;;;0.30;99.90;;;;;;10370471;28;20061;-85
2022/04/10 04:12:27;;;;;;;118.03;55.57;;;0.30;99.90;;;;;;10385163;28;20045;-85
2022/04/10 04:17:28;;;;;;;89.00;45.33;;;0.30;99.90;;;;;;10373948;28;20797;-82
2022/04/10 04:22:28;;;;;;;74.33;36.57;;;0.20;99.90;;;;;;10369227;28;20067;-80
2022/04/10 04:27:29;;;;;;;70.30;35.33;;;0.30;99.90;;;;;;10375842;28;20061;-81
2022/04/10 04:32:30;;;;;;;67.13;34.70;;;0.40;99.90;;;;;;10397679;28;20091;-80
2022/04/10 04:37:30;;;;;;;86.43;42.63;;;0.40;99.90;;;;;;10406561;28;20560;-84
2022/04/10 04:42:31;;;;;;;67.33;35.23;;;0.40;99.90;;;;;;10391598;28;20037;-83
2022/04/10 04:47:31;;;;;;;74.33;38.70;;;0.50;99.90;;;;;;10409218;28;20160;-82
2022/04/10 04:52:32;;;;;;;73.30;38.77;;;0.80;99.90;;;;;;10369823;28;20048;-83
2022/04/10 04:57:33;;;;;;;73.80;39.20;;;1.10;99.90;;;;;;10394659;28;20065;-83
2022/04/10 05:02:33;;;;;;;52.23;25.83;;;1.30;99.90;;;;;;10408408;28;20033;-82
2022/04/10 05:07:34;;;;;;;47.20;24.57;;;1.60;99.90;;;;;;10409577;28;20029;-84
2022/04/10 05:12:35;;;;;;;52.07;28.70;;;1.70;99.90;;;;;;10406888;28;20061;-84
2022/04/10 05:17:36;;;;;;;53.83;29.70;;;1.90;99.90;;;;;;10390939;28;20033;-83
2022/04/10 05:22:37;;;;;;;69.47;35.20;;;2.10;99.90;;;;;;10406830;28;20037;-83
2022/04/10 05:27:38;;;;;;;58.07;29.40;;;2.30;99.90;;;;;;10384323;28;20385;-86
2022/04/10 05:32:42;;;;;;;53.10;29.40;;;2.40;99.90;;;;;;10372798;28;20060;-82
2022/04/10 05:37:42;;;;;;;48.67;24.37;;;2.60;99.90;;;;;;10368611;28;20076;-82
2022/04/10 05:42:46;;;;;;;41.57;20.23;;;2.70;99.90;;;;;;10366026;28;20030;-86
2022/04/10 05:47:47;;;;;;;38.33;20.57;;;2.80;99.90;;;;;;10368396;28;20036;-84
2022/04/10 05:52:50;;;;;;;47.40;25.10;;;3.00;99.90;;;;;;10367446;28;20500;-83
2022/04/10 05:57:51;;;;;;;44.67;23.77;;;3.20;99.90;;;;;;10383805;28;20034;-81
2022/04/10 06:02:52;;;;;;;71.33;42.80;;;3.30;99.90;;;;;;10373119;28;20030;-81
2022/04/10 06:07:52;;;;;;;37.97;19.83;;;3.50;99.90;;;;;;10394804;28;20053;-81
2022/04/10 06:12:53;;;;;;;53.10;28.30;;;3.60;99.90;;;;;;10391662;28;20040;-84
2022/04/10 06:18:15;;;;;;;25.67;14.60;;;3.80;99.90;;;;;;10396455;28;20024;-82
2022/04/10 06:23:23;;;;;;;26.47;14.37;;;3.90;99.90;;;;;;10384849;28;20564;-79
2022/04/10 06:28:23;;;;;;;25.33;14.03;;;4.00;99.90;;;;;;10390218;28;20461;-80
2022/04/10 06:33:24;;;;;;;25.33;14.93;;;4.00;99.90;;;;;;10390130;28;20056;-79
2022/04/10 06:38:24;;;;;;;25.20;12.23;;;4.20;99.90;;;;;;10392054;28;20528;-82
2022/04/10 06:43:25;;;;;;;23.73;15.43;;;4.30;99.90;;;;;;10384249;28;20059;-80
2022/04/10 06:48:26;;;;;;;18.33;10.97;;;4.40;99.90;;;;;;10381107;28;20057;-82
2022/04/10 06:53:26;;;;;;;17.10;9.27;;;4.50;99.90;;;;;;10385373;28;20055;-80
2022/04/10 06:58:28;;;;;;;23.93;12.87;;;4.50;99.90;;;;;;10409097;28;20120;-81
2022/04/10 07:03:28;;;;;;;41.73;18.90;;;4.50;99.90;;;;;;10381621;28;20052;-79
2022/04/10 07:08:29;;;;;;;25.00;12.40;;;4.50;99.90;;;;;;10401020;28;20025;-79
2022/04/10 07:13:30;;;;;;;15.87;8.73;;;4.60;99.90;;;;;;10379253;28;20478;-81
2022/04/10 07:18:32;;;;;;;11.50;6.97;;;4.70;99.90;;;;;;10375377;28;20029;-82
2022/04/10 07:23:46;;;;;;;20.20;9.70;;;4.70;99.90;;;;;;10396279;28;20034;-79
2022/04/10 07:28:48;;;;;;;10.80;6.70;;;5.00;99.90;;;;;;10372660;28;20046;-79
2022/04/10 07:33:49;;;;;;;23.77;11.43;;;5.00;99.90;;;;;;10394357;28;20026;-80
2022/04/10 07:38:50;;;;;;;28.10;12.37;;;5.00;99.90;;;;;;10392341;28;20037;-83
2022/04/10 07:43:50;;;;;;;15.47;7.07;;;5.00;99.90;;;;;;10370509;28;20042;-81
2022/04/10 07:48:51;;;;;;;15.13;7.53;;;5.00;99.90;;;;;;10374507;28;20053;-82
2022/04/10 07:53:54;;;;;;;12.00;5.83;;;5.20;99.90;;;;;;10400236;28;20111;-80
2022/04/10 07:58:55;;;;;;;43.50;21.50;;;5.40;99.90;;;;;;10381457;28;20077;-83
2022/04/10 08:03:55;;;;;;;17.30;8.97;;;5.70;99.90;;;;;;10379217;28;20458;-80
2022/04/10 08:08:56;;;;;;;12.70;7.03;;;6.00;99.90;;;;;;10378668;28;20020;-79
2022/04/10 08:13:57;;;;;;;10.60;4.43;;;6.20;99.90;;;;;;10401286;28;20090;-81
2022/04/10 08:18:57;;;;;;;7.80;4.07;;;6.20;99.90;;;;;;10373487;28;20471;-80
2022/04/10 08:23:58;;;;;;;15.37;6.63;;;6.00;99.90;;;;;;10367980;28;20073;-79
2022/04/10 08:28:58;;;;;;;29.23;11.00;;;6.20;99.90;;;;;;10375243;28;20114;-80
2022/04/10 08:34:00;;;;;;;15.83;7.97;;;6.60;99.90;;;;;;10389648;28;20030;-81
2022/04/10 08:39:01;;;;;;;11.53;5.23;;;7.20;99.90;;;;;;10376095;28;20752;-81
2022/04/10 08:44:03;;;;;;;18.87;8.63;;;7.10;99.90;;;;;;10376199;28;20025;-83
2022/04/10 08:49:04;;;;;;;33.43;14.10;;;6.70;99.90;;;;;;10373795;28;20026;-82
2022/04/10 08:54:06;;;;;;;27.20;11.90;;;6.30;99.90;;;;;;10384868;28;20036;-79
2022/04/10 08:59:07;;;;;;;13.13;6.63;;;6.10;99.90;;;;;;10390995;28;20483;-82
2022/04/10 09:04:07;;;;;;;14.53;6.17;;;6.10;99.90;;;;;;10389726;28;20094;-79
2022/04/10 09:09:12;;;;;;;14.30;8.53;;;6.20;99.90;;;;;;10375016;28;20036;-80
2022/04/10 09:14:20;;;;;;;11.00;5.10;;;6.20;99.90;;;;;;10372639;28;20042;-83
2022/04/10 09:19:21;;;;;;;5.30;3.77;;;6.30;99.90;;;;;;10379388;28;20030;-80
2022/04/10 09:24:21;;;;;;;17.33;6.73;;;6.40;99.90;;;;;;10379302;28;20041;-80
2022/04/10 09:29:24;;;;;;;12.83;6.60;;;6.60;99.90;;;;;;10405700;28;20053;-83
2022/04/10 09:34:25;;;;;;;36.60;16.33;;;6.60;99.90;;;;;;10372823;28;20033;-80
2022/04/10 09:39:36;;;;;;;24.07;10.97;;;6.40;99.90;;;;;;10396404;28;20022;-80
2022/04/10 09:44:38;;;;;;;58.60;26.57;;;6.20;99.90;;;;;;10400398;28;20095;-81
2022/04/10 09:49:40;;;;;;;21.53;10.73;;;6.10;99.90;;;;;;10379082;28;20099;-82
2022/04/10 09:54:43;;;;;;;18.17;8.07;;;6.10;99.90;;;;;;10397933;28;20075;-80
2022/04/10 09:59:48;;;;;;;15.60;5.73;;;6.00;99.90;;;;;;10406813;28;20420;-81
2022/04/10 10:04:49;;;;;;;6.30;3.53;;;5.90;99.90;;;;;;10369117;28;20041;-79
2022/04/10 10:09:50;;;;;;;47.97;18.73;;;5.90;99.90;;;;;;10379253;28;20046;-83
2022/04/10 10:14:51;;;;;;;31.67;10.40;;;6.10;99.90;;;;;;10389955;28;20021;-82
2022/04/10 10:19:53;;;;;;;20.53;7.13;;;6.40;99.90;;;;;;10384871;28;20454;-80
2022/04/10 10:25:07;;;;;;;27.90;11.33;;;6.60;99.90;;;;;;10366329;28;20474;-80
2022/04/10 10:30:29;;;;;;;18.10;7.73;;;6.90;99.90;;;;;;10402628;28;20061;-82
2022/04/10 10:35:35;;;;;;;41.30;19.23;;;7.00;98.00;;;;;;10404579;28;20091;-81
2022/04/10 10:40:36;;;;;;;29.97;13.47;;;7.20;99.90;;;;;;10405374;28;20048;-81
2022/04/10 10:45:43;;;;;;;17.63;6.97;;;7.10;99.90;;;;;;10398477;28;20546;-82
2022/04/10 10:50:44;;;;;;;11.73;5.83;;;6.90;99.50;;;;;;10403318;28;20076;-83
2022/04/10 10:55:49;;;;;;;19.70;8.90;;;6.60;99.00;;;;;;10380102;28;20092;-83
2022/04/10 11:00:52;;;;;;;12.47;6.00;;;6.20;99.80;;;;;;10388424;28;20018;-84
2022/04/10 11:06:03;;;;;;;14.10;6.70;;;6.10;99.90;;;;;;10412988;28;20072;-79
2022/04/10 11:11:05;;;;;;;28.70;14.73;;;6.30;99.90;;;;;;10390219;28;20443;-80
2022/04/10 11:16:10;;;;;;;41.70;22.23;;;6.70;99.90;;;;;;10412167;28;20017;-80
2022/04/10 11:21:13;;;;;;;7.85;3.75;;;7.10;99.90;;;;;;10374688;28;20038;-81
2022/04/10 11:26:18;;;;;;;15.17;6.80;;;7.30;99.10;;;;;;10373784;28;20067;-82
2022/04/10 11:31:39;;;;;;;18.73;10.33;;;7.60;98.50;;;;;;10409647;28;20037;-83
2022/04/10 11:36:52;;;;;;;16.00;7.23;;;7.70;95.00;;;;;;10381978;28;20048;-81
2022/04/10 11:41:57;;;;;;;25.03;13.30;;;7.60;95.70;;;;;;10390833;28;20045;-81
2022/04/10 11:47:05;;;;;;;36.27;15.50;;;7.80;96.90;;;;;;10406218;28;20034;-80
2022/04/10 11:52:07;;;;;;;18.17;8.77;;;7.80;96.40;;;;;;10409429;28;20126;-83
2022/04/10 11:57:08;;;;;;;17.23;7.93;;;7.90;97.50;;;;;;10408348;28;20033;-84
2022/04/10 12:02:10;;;;;;;21.30;7.83;;;7.80;95.10;;;;;;10383049;28;20041;-80
2022/04/10 12:07:17;;;;;;;20.63;9.93;;;7.90;96.90;;;;;;10370183;28;20116;-81
2022/04/10 12:12:20;;;;;;;15.07;8.40;;;8.00;95.50;;;;;;10374433;28;20058;-83
2022/04/10 12:17:22;;;;;;;12.03;7.60;;;7.90;96.00;;;;;;10372935;28;20049;-81
2022/04/10 12:22:23;;;;;;;29.80;16.87;;;7.70;96.20;;;;;;10391739;28;20052;-78
2022/04/10 12:27:23;;;;;;;13.63;7.87;;;8.20;96.80;;;;;;10368415;28;20053;-80
2022/04/10 12:32:26;;;;;;;11.17;6.40;;;8.30;96.50;;;;;;10379714;28;20041;-81
2022/04/10 12:37:27;;;;;;;19.17;8.30;;;9.00;95.70;;;;;;10392957;28;20397;-81
2022/04/10 12:42:41;;;;;;;13.73;7.07;;;9.40;95.20;;;;;;10408609;28;20033;-81
2022/04/10 12:47:46;;;;;;;18.70;8.77;;;9.60;94.50;;;;;;10368422;28;20029;-81
2022/04/10 12:52:47;;;;;;;13.97;8.40;;;9.80;93.60;;;;;;10404490;28;20026;-81
2022/04/10 12:57:55;;;;;;;8.30;4.55;;;10.10;92.20;;;;;;10380331;28;20109;-82
2022/04/10 13:02:56;;;;;;;3.50;2.20;;;9.90;90.40;;;;;;10376497;28;20150;-83
2022/04/10 13:08:03;;;;;;;5.60;3.43;;;8.70;91.50;;;;;;10383035;28;20532;-81
2022/04/10 13:13:08;;;;;;;5.77;3.27;;;7.70;94.60;;;;;;10368496;28;20021;-81
2022/04/10 13:18:09;;;;;;;5.70;3.10;;;7.20;99.90;;;;;;10380110;28;20116;-80
2022/04/10 13:23:09;;;;;;;5.90;3.40;;;7.30;99.90;;;;;;10378873;28;20032;-81
2022/04/10 13:28:10;;;;;;;37.50;17.37;;;7.40;99.90;;;;;;10373795;28;20176;-81
2022/04/10 13:33:13;;;;;;;41.20;13.30;;;7.50;99.90;;;;;;10385680;28;20026;-79
2022/04/10 13:38:14;;;;;;;21.60;9.70;;;6.90;99.20;;;;;;10371640;28;20049;-79
2022/04/10 13:43:14;;;;;;;32.17;16.10;;;6.60;99.40;;;;;;10375001;28;20529;-80
2022/04/10 13:48:15;;;;;;;25.07;10.53;;;6.60;99.90;;;;;;10396016;28;20026;-81
2022/04/10 13:53:15;;;;;;;23.13;9.07;;;7.10;99.90;;;;;;10404981;28;20033;-80
2022/04/10 13:58:16;;;;;;;17.83;8.90;;;7.90;98.40;;;;;;10373916;28;20080;-80
2022/04/10 14:03:17;;;;;;;16.13;7.90;;;8.30;95.90;;;;;;10366632;28;20036;-81
2022/04/10 14:08:17;;;;;;;19.13;9.10;;;8.60;94.20;;;;;;10387584;28;20376;-79
2022/04/10 14:13:18;;;;;;;24.43;11.97;;;8.70;93.20;;;;;;10381944;28;20037;-82
2022/04/10 14:18:19;;;;;;;27.37;12.30;;;8.70;92.10;;;;;;10393889;28;20029;-81
2022/04/10 14:23:20;;;;;;;31.37;14.40;;;8.90;93.30;;;;;;10391883;28;20041;-80
2022/04/10 14:28:20;;;;;;;21.27;9.53;;;9.20;93.70;;;;;;10408523;28;20045;-81
2022/04/10 14:33:21;;;;;;;9.03;5.53;;;9.70;90.60;;;;;;10407038;28;20494;-80
2022/04/10 14:38:22;;;;;;;6.83;4.10;;;9.70;88.20;;;;;;10405037;28;20041;-83
2022/04/10 14:43:22;;;;;;;12.77;5.77;;;9.30;85.40;;;;;;10389114;28;20072;-79
2022/04/10 14:48:23;;;;;;;5.07;2.30;;;9.10;81.50;;;;;;10410577;28;20152;-79
2022/04/10 14:53:23;;;;;;;17.87;8.40;;;9.00;77.60;;;;;;10399608;28;20046;-82
2022/04/10 14:58:24;;;;;;;16.50;7.40;;;9.10;79.70;;;;;;10406024;28;20497;-80
2022/04/10 15:03:25;;;;;;;14.87;6.17;;;9.30;77.60;;;;;;10372527;28;20080;-80
2022/04/10 15:08:25;;;;;;;53.53;19.93;;;9.20;74.30;;;;;;10397792;28;20096;-79
2022/04/10 15:13:28;;;;;;;20.53;8.27;;;9.10;74.00;;;;;;10383149;28;20037;-80
2022/04/10 15:18:28;;;;;;;5.37;2.10;;;9.10;75.00;;;;;;10390510;28;20033;-79
2022/04/10 15:23:29;;;;;;;4.17;2.37;;;8.60;79.30;;;;;;10377902;28;20037;-80
2022/04/10 15:28:30;;;;;;;8.73;3.13;;;7.80;83.10;;;;;;10391387;28;20057;-81
2022/04/10 15:33:30;;;;;;;4.73;2.10;;;7.50;86.60;;;;;;10364135;28;20046;-81
2022/04/10 15:38:31;;;;;;;5.47;2.40;;;7.50;87.20;;;;;;10391243;28;20029;-80
2022/04/10 15:43:32;;;;;;;11.57;4.57;;;7.30;86.50;;;;;;10378039;28;20045;-80
2022/04/10 15:48:34;;;;;;;22.30;9.33;;;7.30;87.70;;;;;;10392185;28;20034;-82
2022/04/10 15:53:35;;;;;;;36.10;13.97;;;7.40;89.00;;;;;;10370897;28;20121;-81
2022/04/10 15:58:36;;;;;;;17.83;8.97;;;7.40;90.80;;;;;;10376644;28;20033;-80
2022/04/10 16:03:37;;;;;;;58.40;24.93;;;7.10;91.50;;;;;;10386760;28;20124;-80
2022/04/10 16:08:38;;;;;;;33.67;16.27;;;6.80;92.80;;;;;;10377144;28;20036;-80
2022/04/10 16:13:38;;;;;;;53.37;20.93;;;6.70;94.20;;;;;;10390356;28;20033;-80
2022/04/10 16:18:39;;;;;;;37.97;15.70;;;6.80;94.50;;;;;;10398123;28;20506;-81
2022/04/10 16:23:39;;;;;;;17.27;9.10;;;6.90;94.80;;;;;;10392677;28;20482;-83
2022/04/10 16:34:17;;;;;;;19.10;10.27;;;6.90;95.10;;;;;;10378035;28;20114;-80
2022/04/10 16:39:18;;;;;;;51.20;24.67;;;6.90;95.40;;;;;;10409749;28;20038;-81
2022/04/10 16:44:18;;;;;;;24.97;13.83;;;6.70;95.60;;;;;;10389588;28;20060;-82
2022/04/10 16:49:19;;;;;;;28.43;13.23;;;6.70;96.50;;;;;;10390199;28;20042;-81
2022/04/10 16:59:45;;;;;;;68.27;29.70;;;6.60;96.90;;;;;;10384246;28;20041;-81
2022/04/10 17:04:48;;;;;;;87.47;35.43;;;6.60;97.30;;;;;;10385310;28;20044;-80
2022/04/10 17:09:48;;;;;;;90.43;38.83;;;6.40;97.50;;;;;;10365724;23;20050;-81
2022/04/10 17:14:49;;;;;;;50.60;23.30;;;6.20;97.90;;;;;;10319055;28;20034;-82
2022/04/10 17:19:50;;;;;;;320.90;129.67;;;6.00;98.50;;;;;;10324198;28;20371;-79
2022/04/10 17:24:51;;;;;;;172.20;67.03;;;5.80;99.00;;;;;;10314255;28;20121;-80
2022/04/10 17:29:52;;;;;;;68.50;34.30;;;5.60;99.90;;;;;;10312612;28;20422;-82
2022/04/10 17:34:54;;;;;;;56.40;27.60;;;5.30;99.90;;;;;;10321860;28;20029;-80
2022/04/10 17:39:54;;;;;;;135.47;50.33;;;5.00;99.90;;;;;;10358320;28;20389;-82
2022/04/10 17:44:55;;;;;;;188.43;73.70;;;4.90;99.90;;;;;;10362382;28;20038;-81
2022/04/10 17:49:56;;;;;;;407.43;142.87;;;5.00;99.90;;;;;;10371234;28;20105;-83
2022/04/10 17:54:56;;;;;;;192.97;75.73;;;4.90;99.90;;;;;;10353090;28;20034;-82
2022/04/10 17:59:58;;;;;;;148.17;58.13;;;4.80;99.90;;;;;;10357396;28;20105;-81
2022/04/10 18:04:59;;;;;;;107.43;47.03;;;4.60;99.90;;;;;;10351772;28;20141;-80
2022/04/10 18:09:59;;;;;;;93.40;42.87;;;4.40;99.90;;;;;;10347400;28;20554;-81
2022/04/10 18:15:00;;;;;;;70.60;36.00;;;4.40;99.90;;;;;;10350211;28;20021;-81
2022/04/10 18:20:02;;;;;;;72.93;37.50;;;4.40;99.90;;;;;;10365931;28;20485;-81
2022/04/10 18:25:03;;;;;;;120.60;50.63;;;4.50;99.90;;;;;;10348125;28;20089;-80
2022/04/10 18:30:04;;;;;;;126.53;51.60;;;4.50;99.90;;;;;;10384497;28;20080;-81
2022/04/10 18:35:05;;;;;;;76.37;33.10;;;4.60;99.90;;;;;;10348194;28;20033;-82
2022/04/10 18:40:07;;;;;;;69.97;31.43;;;4.60;99.90;;;;;;10373568;28;20033;-81
2022/04/10 18:45:08;;;;;;;66.13;33.63;;;4.60;99.90;;;;;;10373998;28;20038;-80
2022/04/10 18:50:10;;;;;;;64.47;32.93;;;4.50;99.90;;;;;;10373493;28;20148;-80
2022/04/10 18:55:13;;;;;;;87.53;45.03;;;4.50;99.90;;;;;;10355696;28;20026;-81
2022/04/10 19:00:15;;;;;;;91.00;42.80;;;4.40;99.90;;;;;;10371589;28;20026;-80
2022/04/10 19:05:16;;;;;;;165.53;77.07;;;4.30;99.90;;;;;;10331496;28;20049;-82
2022/04/10 19:10:17;;;;;;;148.70;67.27;;;4.30;99.90;;;;;;10333732;28;20050;-81
2022/04/10 19:15:17;;;;;;;154.63;61.27;;;4.30;99.90;;;;;;10335860;28;20030;-81
2022/04/10 19:20:18;;;;;;;204.90;86.70;;;4.40;99.90;;;;;;10335596;28;20034;-81
2022/04/10 19:25:19;;;;;;;216.20;84.60;;;4.30;99.90;;;;;;10333972;28;20491;-81
2022/04/10 19:30:20;;;;;;;167.00;66.30;;;4.20;99.90;;;;;;10361849;28;20385;-81
2022/04/10 19:35:21;;;;;;;146.80;58.00;;;4.00;99.90;;;;;;10371595;28;20080;-80
2022/04/10 19:40:22;;;;;;;218.57;94.33;;;3.90;99.90;;;;;;10370233;28;20037;-82
2022/04/10 19:45:22;;;;;;;189.27;85.57;;;3.90;99.90;;;;;;10364669;28;20474;-82
2022/04/10 19:50:23;;;;;;;152.33;64.20;;;3.70;99.90;;;;;;10363310;28;20033;-82
2022/04/10 19:55:24;;;;;;;160.90;70.00;;;3.50;99.90;;;;;;10357633;28;20045;-81
2022/04/10 20:00:24;;;;;;;153.40;71.67;;;3.30;99.90;;;;;;10427482;23;20643;-79
2022/04/10 20:05:26;;;;;;;126.87;56.87;;;3.10;99.90;;;;;;10366073;28;20104;-81
2022/04/10 20:10:28;;;;;;;149.23;68.43;;;3.00;99.90;;;;;;10368305;28;20260;-81
2022/04/10 20:15:29;;;;;;;171.17;63.17;;;3.00;99.90;;;;;;10362060;28;20089;-81
2022/04/10 20:20:30;;;;;;;162.87;55.73;;;3.00;99.90;;;;;;10339318;28;20105;-82
2022/04/10 20:25:31;;;;;;;141.03;53.83;;;3.00;99.90;;;;;;10364348;28;20038;-81
2022/04/10 20:30:32;;;;;;;116.83;47.17;;;3.00;99.90;;;;;;10366126;28;20108;-82
2022/04/10 20:35:34;;;;;;;106.17;40.47;;;3.00;99.90;;;;;;10349660;28;20752;-80
2022/04/10 20:40:35;;;;;;;81.40;31.93;;;3.00;99.90;;;;;;10339253;28;20026;-84
2022/04/10 20:45:35;;;;;;;55.97;26.07;;;3.20;99.90;;;;;;10368771;28;20045;-81
2022/04/10 20:50:36;;;;;;;44.17;22.13;;;3.20;99.90;;;;;;10368622;28;20033;-80
2022/04/10 20:55:36;;;;;;;52.20;24.33;;;3.30;99.90;;;;;;10369346;28;20585;-80
2022/04/10 21:00:37;;;;;;;41.50;21.50;;;3.20;99.90;;;;;;10367448;28;20057;-80
2022/04/10 21:05:39;;;;;;;49.80;24.87;;;3.10;99.90;;;;;;10368152;28;20448;-81
2022/04/10 21:10:56;;;;;;;46.47;23.97;;;3.10;99.90;;;;;;10368339;28;20389;-82
2022/04/10 21:15:58;;;;;;;52.60;25.70;;;3.00;99.90;;;;;;10367302;28;20026;-80
2022/04/10 21:21:00;;;;;;;57.27;25.17;;;2.90;99.90;;;;;;10368073;28;20025;-80
2022/04/10 21:26:01;;;;;;;52.20;25.53;;;2.90;99.90;;;;;;10367552;28;20046;-82
2022/04/10 21:31:02;;;;;;;57.43;29.67;;;2.80;99.90;;;;;;10366071;28;20052;-83
2022/04/10 21:36:03;;;;;;;53.97;25.83;;;2.70;99.90;;;;;;10367339;28;20116;-81
2022/04/10 21:41:03;;;;;;;71.90;36.83;;;2.70;99.90;;;;;;10366677;28;20021;-81
2022/04/10 21:46:04;;;;;;;73.03;33.60;;;2.50;99.90;;;;;;10366509;28;20037;-80
2022/04/10 21:51:07;;;;;;;80.77;36.30;;;2.50;99.90;;;;;;10366861;28;20026;-80
2022/04/10 21:56:07;;;;;;;55.53;26.27;;;2.40;99.90;;;;;;10367265;28;20113;-81
2022/04/10 22:01:08;;;;;;;57.27;25.93;;;2.30;99.90;;;;;;10365431;28;20153;-80
2022/04/10 22:06:08;;;;;;;53.13;27.33;;;2.30;99.90;;;;;;10366552;28;20135;-79
2022/04/10 22:11:09;;;;;;;62.23;32.90;;;2.20;99.90;;;;;;10366928;28;20030;-80
2022/04/10 22:16:10;;;;;;;75.43;35.60;;;2.10;99.90;;;;;;10366294;28;20034;-80
2022/04/10 22:21:14;;;;;;;76.80;35.87;;;2.00;99.90;;;;;;10366182;28;20038;-80
2022/04/10 22:26:14;;;;;;;85.17;43.57;;;2.10;99.90;;;;;;10366517;28;20088;-81
2022/04/10 22:31:15;;;;;;;83.27;41.33;;;2.20;99.90;;;;;;10365893;28;20436;-81
2022/04/10 22:36:15;;;;;;;85.10;42.57;;;2.30;99.90;;;;;;10366625;28;20045;-81
2022/04/10 22:41:16;;;;;;;83.47;40.93;;;2.50;99.90;;;;;;10369566;28;20038;-82
2022/04/10 22:46:17;;;;;;;81.23;35.13;;;2.50;99.90;;;;;;10372911;28;20088;-83
2022/04/10 22:51:17;;;;;;;81.97;36.00;;;2.70;99.90;;;;;;10372311;28;20437;-81
2022/04/10 22:56:18;;;;;;;57.97;26.23;;;2.70;99.90;;;;;;10373620;28;20065;-81
2022/04/10 23:01:19;;;;;;;55.30;26.23;;;2.70;99.90;;;;;;10372071;28;20061;-80
2022/04/10 23:06:20;;;;;;;71.00;31.77;;;2.80;99.90;;;;;;10372847;28;20478;-80
2022/04/10 23:11:20;;;;;;;52.57;24.50;;;2.80;99.90;;;;;;10372681;28;20034;-80
2022/04/10 23:16:21;;;;;;;48.10;22.47;;;2.90;99.90;;;;;;10372077;28;20034;-83
2022/04/10 23:21:22;;;;;;;46.77;21.33;;;2.90;99.90;;;;;;10371650;28;20034;-80
2022/04/10 23:26:23;;;;;;;55.93;26.87;;;2.90;99.90;;;;;;10372133;28;20046;-83
2022/04/10 23:31:23;;;;;;;37.87;19.20;;;2.90;99.90;;;;;;10371698;28;20092;-81
2022/04/10 23:36:27;;;;;;;46.90;23.17;;;2.90;99.90;;;;;;10370601;28;20480;-81
2022/04/10 23:41:27;;;;;;;55.67;27.50;;;3.00;99.90;;;;;;10354211;28;20498;-83
2022/04/10 23:46:28;;;;;;;47.47;23.53;;;3.00;99.90;;;;;;10371457;28;20057;-80
2022/04/10 23:51:29;;;;;;;39.37;20.27;;;3.00;99.90;;;;;;10369849;28;20490;-80
2022/04/10 23:56:29;;;;;;;27.97;15.83;;;3.00;99.90;;;;;;10370918;28;20037;-81
